sensor_id;sensor_type;location;lat;lon;timestamp;temperature;humidity
3194;DHT22;1608;50.860;13.466;2023-04-01T00:01:06;11.10;99.90
3194;DHT22;1608;50.860;13.466;2023-04-01T00:03:33;11.20;99.90
3194;DHT22;1608;50.860;13.466;2023-04-01T00:06:01;11.30;99.90
3194;DHT22;1608;50.860;13.466;2023-04-01T00:08:28;11.30;99.90
3194;DHT22;1608;50.860;13.466;2023-04-01T00:10:55;11.20;99.90
3194;DHT22;1608;50.860;13.466;2023-04-01T00:13:24;11.20;99.90
3194;DHT22;1608;50.860;13.466;2023-04-01T00:15:51;11.20;99.90
3194;DHT22;1608;50.860;13.466;2023-04-01T00:18:20;11.30;99.90
3194;DHT22;1608;50.860;13.466;2023-04-01T00:20:48;11.30;99.90
3194;DHT22;1608;50.860;13.466;2023-04-01T00:23:16;11.30;99.90
3194;DHT22;1608;50.860;13.466;2023-04-01T00:25:44;11.30;99.90
3194;DHT22;1608;50.860;13.466;2023-04-01T00:28:11;11.20;99.90
3194;DHT22;1608;50.860;13.466;2023-04-01T00:30:38;11.20;99.90
3194;DHT22;1608;50.860;13.466;2023-04-01T00:33:05;11.20;99.90
3194;DHT22;1608;50.860;13.466;2023-04-01T00:35:33;11.20;99.90
3194;DHT22;1608;50.860;13.466;2023-04-01T00:38:00;11.10;99.90
3194;DHT22;1608;50.860;13.466;2023-04-01T00:40:29;11.10;99.90
3194;DHT22;1608;50.860;13.466;2023-04-01T00:42:57;11.10;99.90
3194;DHT22;1608;50.860;13.466;2023-04-01T00:45:31;11.10;99.90
3194;DHT22;1608;50.860;13.466;2023-04-01T00:48:01;11.20;99.90
3194;DHT22;1608;50.860;13.466;2023-04-01T00:50:29;11.20;99.90
3194;DHT22;1608;50.860;13.466;2023-04-01T00:53:00;11.20;99.90
3194;DHT22;1608;50.860;13.466;2023-04-01T00:55:28;11.30;99.90
3194;DHT22;1608;50.860;13.466;2023-04-01T00:57:57;11.20;99.90
3194;DHT22;1608;50.860;13.466;2023-04-01T01:00:25;11.20;99.90
3194;DHT22;1608;50.860;13.466;2023-04-01T01:02:52;11.30;99.90
3194;DHT22;1608;50.860;13.466;2023-04-01T01:05:23;11.40;99.90
3194;DHT22;1608;50.860;13.466;2023-04-01T01:08:01;11.40;99.90
3194;DHT22;1608;50.860;13.466;2023-04-01T01:10:32;11.20;99.90
3194;DHT22;1608;50.860;13.466;2023-04-01T01:13:06;11.20;99.90
3194;DHT22;1608;50.860;13.466;2023-04-01T01:15:41;11.20;99.90
3194;DHT22;1608;50.860;13.466;2023-04-01T01:18:18;11.30;99.90
3194;DHT22;1608;50.860;13.466;2023-04-01T01:24:13;11.30;99.90
3194;DHT22;1608;50.860;13.466;2023-04-01T01:26:54;11.30;99.90
3194;DHT22;1608;50.860;13.466;2023-04-01T01:32:38;11.30;99.90
3194;DHT22;1608;50.860;13.466;2023-04-01T01:35:22;11.20;99.90
3194;DHT22;1608;50.860;13.466;2023-04-01T01:37:53;11.20;99.90
3194;DHT22;1608;50.860;13.466;2023-04-01T01:40:22;11.10;99.90
3194;DHT22;1608;50.860;13.466;2023-04-01T01:42:55;11.00;99.90
3194;DHT22;1608;50.860;13.466;2023-04-01T01:45:24;11.00;99.90
3194;DHT22;1608;50.860;13.466;2023-04-01T01:47:52;11.00;99.90
3194;DHT22;1608;50.860;13.466;2023-04-01T01:50:21;10.90;99.90
3194;DHT22;1608;50.860;13.466;2023-04-01T01:52:49;10.90;99.90
3194;DHT22;1608;50.860;13.466;2023-04-01T01:55:26;11.00;99.90
3194;DHT22;1608;50.860;13.466;2023-04-01T01:57:55;10.90;99.90
3194;DHT22;1608;50.860;13.466;2023-04-01T02:00:23;11.00;99.90
3194;DHT22;1608;50.860;13.466;2023-04-01T02:02:50;11.00;99.90
3194;DHT22;1608;50.860;13.466;2023-04-01T02:05:21;10.90;99.90
3194;DHT22;1608;50.860;13.466;2023-04-01T02:07:52;11.00;99.90
3194;DHT22;1608;50.860;13.466;2023-04-01T02:10:25;11.00;99.90
3194;DHT22;1608;50.860;13.466;2023-04-01T02:12:53;11.00;99.90
3194;DHT22;1608;50.860;13.466;2023-04-01T02:15:24;11.00;99.90
3194;DHT22;1608;50.860;13.466;2023-04-01T02:17:52;11.00;99.90
3194;DHT22;1608;50.860;13.466;2023-04-01T02:20:24;11.00;99.90
3194;DHT22;1608;50.860;13.466;2023-04-01T02:22:53;11.00;99.90
3194;DHT22;1608;50.860;13.466;2023-04-01T02:25:23;11.00;99.90
3194;DHT22;1608;50.860;13.466;2023-04-01T02:27:51;11.00;99.90
3194;DHT22;1608;50.860;13.466;2023-04-01T02:30:20;11.00;99.90
3194;DHT22;1608;50.860;13.466;2023-04-01T02:32:48;11.00;99.90
3194;DHT22;1608;50.860;13.466;2023-04-01T02:35:16;10.90;99.90
3194;DHT22;1608;50.860;13.466;2023-04-01T02:37:46;10.80;99.90
3194;DHT22;1608;50.860;13.466;2023-04-01T02:40:14;10.70;99.90
3194;DHT22;1608;50.860;13.466;2023-04-01T02:42:41;10.60;99.90
3194;DHT22;1608;50.860;13.466;2023-04-01T02:45:10;10.60;99.90
3194;DHT22;1608;50.860;13.466;2023-04-01T02:47:36;10.50;99.90
3194;DHT22;1608;50.860;13.466;2023-04-01T02:50:04;10.50;99.90
3194;DHT22;1608;50.860;13.466;2023-04-01T02:52:31;10.50;99.90
3194;DHT22;1608;50.860;13.466;2023-04-01T02:55:00;10.50;99.90
3194;DHT22;1608;50.860;13.466;2023-04-01T02:57:27;10.50;99.90
3194;DHT22;1608;50.860;13.466;2023-04-01T02:59:54;10.50;99.90
3194;DHT22;1608;50.860;13.466;2023-04-01T03:02:21;10.50;99.90
3194;DHT22;1608;50.860;13.466;2023-04-01T03:04:48;10.60;99.90
3194;DHT22;1608;50.860;13.466;2023-04-01T03:07:14;10.60;99.90
3194;DHT22;1608;50.860;13.466;2023-04-01T03:09:41;10.70;99.90
3194;DHT22;1608;50.860;13.466;2023-04-01T03:12:10;10.70;99.90
3194;DHT22;1608;50.860;13.466;2023-04-01T03:14:36;10.80;99.90
3194;DHT22;1608;50.860;13.466;2023-04-01T03:17:03;10.80;99.90
3194;DHT22;1608;50.860;13.466;2023-04-01T03:19:30;10.80;99.90
3194;DHT22;1608;50.860;13.466;2023-04-01T03:21:57;10.80;99.90
3194;DHT22;1608;50.860;13.466;2023-04-01T03:24:24;11.00;99.90
3194;DHT22;1608;50.860;13.466;2023-04-01T03:26:51;11.00;99.90
3194;DHT22;1608;50.860;13.466;2023-04-01T03:29:19;11.10;99.90
3194;DHT22;1608;50.860;13.466;2023-04-01T03:31:46;11.10;99.90
3194;DHT22;1608;50.860;13.466;2023-04-01T03:34:13;11.10;99.90
3194;DHT22;1608;50.860;13.466;2023-04-01T03:36:40;11.10;99.90
3194;DHT22;1608;50.860;13.466;2023-04-01T03:39:06;11.10;99.90
3194;DHT22;1608;50.860;13.466;2023-04-01T03:41:35;11.10;99.90
3194;DHT22;1608;50.860;13.466;2023-04-01T03:44:03;11.20;99.90
3194;DHT22;1608;50.860;13.466;2023-04-01T03:46:31;11.20;99.90
3194;DHT22;1608;50.860;13.466;2023-04-01T03:48:57;11.20;99.90
3194;DHT22;1608;50.860;13.466;2023-04-01T03:51:24;11.20;99.90
3194;DHT22;1608;50.860;13.466;2023-04-01T03:53:51;11.20;99.90
3194;DHT22;1608;50.860;13.466;2023-04-01T03:56:18;11.20;99.90
3194;DHT22;1608;50.860;13.466;2023-04-01T03:58:45;11.20;99.90
3194;DHT22;1608;50.860;13.466;2023-04-01T04:01:16;11.20;99.90
3194;DHT22;1608;50.860;13.466;2023-04-01T04:03:45;11.20;99.90
3194;DHT22;1608;50.860;13.466;2023-04-01T04:06:12;11.20;99.90
3194;DHT22;1608;50.860;13.466;2023-04-01T04:08:39;11.20;99.90
3194;DHT22;1608;50.860;13.466;2023-04-01T04:11:07;11.20;99.90
3194;DHT22;1608;50.860;13.466;2023-04-01T04:13:34;11.10;99.90
3194;DHT22;1608;50.860;13.466;2023-04-01T04:16:01;11.00;99.90
3194;DHT22;1608;50.860;13.466;2023-04-01T04:18:28;11.00;99.90
3194;DHT22;1608;50.860;13.466;2023-04-01T04:20:56;11.00;99.90
3194;DHT22;1608;50.860;13.466;2023-04-01T04:23:23;11.00;99.90
3194;DHT22;1608;50.860;13.466;2023-04-01T04:25:54;11.10;99.90
3194;DHT22;1608;50.860;13.466;2023-04-01T04:28:21;11.00;99.90
3194;DHT22;1608;50.860;13.466;2023-04-01T04:30:48;11.00;99.90
3194;DHT22;1608;50.860;13.466;2023-04-01T04:33:15;11.10;99.90
3194;DHT22;1608;50.860;13.466;2023-04-01T04:35:42;11.10;99.90
3194;DHT22;1608;50.860;13.466;2023-04-01T04:38:10;11.00;99.90
3194;DHT22;1608;50.860;13.466;2023-04-01T04:40:37;11.00;99.90
3194;DHT22;1608;50.860;13.466;2023-04-01T04:43:04;11.00;99.90
3194;DHT22;1608;50.860;13.466;2023-04-01T04:45:31;10.90;99.90
3194;DHT22;1608;50.860;13.466;2023-04-01T04:47:58;10.90;99.90
3194;DHT22;1608;50.860;13.466;2023-04-01T04:50:25;11.00;99.90
3194;DHT22;1608;50.860;13.466;2023-04-01T04:52:52;11.00;99.90
3194;DHT22;1608;50.860;13.466;2023-04-01T04:55:21;11.10;99.90
3194;DHT22;1608;50.860;13.466;2023-04-01T04:57:47;11.20;99.90
3194;DHT22;1608;50.860;13.466;2023-04-01T05:00:15;11.20;99.90
3194;DHT22;1608;50.860;13.466;2023-04-01T05:02:42;11.10;99.90
3194;DHT22;1608;50.860;13.466;2023-04-01T05:05:09;11.20;99.90
3194;DHT22;1608;50.860;13.466;2023-04-01T05:07:36;11.20;99.90
3194;DHT22;1608;50.860;13.466;2023-04-01T05:10:04;11.10;99.90
3194;DHT22;1608;50.860;13.466;2023-04-01T05:12:33;11.10;99.90
3194;DHT22;1608;50.860;13.466;2023-04-01T05:15:03;11.00;99.90
3194;DHT22;1608;50.860;13.466;2023-04-01T05:17:30;11.00;99.90
3194;DHT22;1608;50.860;13.466;2023-04-01T05:19:57;11.10;99.90
3194;DHT22;1608;50.860;13.466;2023-04-01T05:22:23;11.20;99.90
3194;DHT22;1608;50.860;13.466;2023-04-01T05:24:50;11.20;99.90
3194;DHT22;1608;50.860;13.466;2023-04-01T05:27:17;11.20;99.90
3194;DHT22;1608;50.860;13.466;2023-04-01T05:29:45;11.20;99.90
3194;DHT22;1608;50.860;13.466;2023-04-01T05:32:12;11.30;99.90
3194;DHT22;1608;50.860;13.466;2023-04-01T05:34:40;11.20;99.90
3194;DHT22;1608;50.860;13.466;2023-04-01T05:37:07;11.30;99.90
3194;DHT22;1608;50.860;13.466;2023-04-01T05:39:36;11.30;99.90
3194;DHT22;1608;50.860;13.466;2023-04-01T05:42:05;11.40;99.90
3194;DHT22;1608;50.860;13.466;2023-04-01T05:44:33;11.50;99.90
3194;DHT22;1608;50.860;13.466;2023-04-01T05:47:01;11.60;99.90
3194;DHT22;1608;50.860;13.466;2023-04-01T05:49:28;11.60;99.90
3194;DHT22;1608;50.860;13.466;2023-04-01T05:51:55;11.50;99.90
3194;DHT22;1608;50.860;13.466;2023-04-01T05:54:22;11.50;99.90
3194;DHT22;1608;50.860;13.466;2023-04-01T05:56:49;11.50;99.90
3194;DHT22;1608;50.860;13.466;2023-04-01T05:59:16;11.60;99.90
3194;DHT22;1608;50.860;13.466;2023-04-01T06:01:43;11.70;99.90
3194;DHT22;1608;50.860;13.466;2023-04-01T06:04:14;13.70;99.90
3194;DHT22;1608;50.860;13.466;2023-04-01T06:06:41;11.70;99.90
3194;DHT22;1608;50.860;13.466;2023-04-01T06:09:13;11.70;99.90
3194;DHT22;1608;50.860;13.466;2023-04-01T06:11:52;11.70;99.90
3194;DHT22;1608;50.860;13.466;2023-04-01T06:14:30;11.70;99.90
3194;DHT22;1608;50.860;13.466;2023-04-01T06:17:12;11.70;99.90
3194;DHT22;1608;50.860;13.466;2023-04-01T06:19:50;11.80;99.90
3194;DHT22;1608;50.860;13.466;2023-04-01T06:25:33;11.90;99.90
3194;DHT22;1608;50.860;13.466;2023-04-01T06:31:03;12.10;99.90
3194;DHT22;1608;50.860;13.466;2023-04-01T06:33:50;12.20;99.90
3194;DHT22;1608;50.860;13.466;2023-04-01T06:36:39;12.30;99.90
3194;DHT22;1608;50.860;13.466;2023-04-01T06:39:38;12.40;99.90
3194;DHT22;1608;50.860;13.466;2023-04-01T06:42:23;12.80;99.90
3194;DHT22;1608;50.860;13.466;2023-04-01T06:45:01;12.60;99.90
3194;DHT22;1608;50.860;13.466;2023-04-01T06:47:44;12.60;99.90
3194;DHT22;1608;50.860;13.466;2023-04-01T06:50:21;12.60;99.90
3194;DHT22;1608;50.860;13.466;2023-04-01T06:52:56;12.80;99.90
3194;DHT22;1608;50.860;13.466;2023-04-01T06:55:29;12.70;99.90
3194;DHT22;1608;50.860;13.466;2023-04-01T06:58:00;12.90;99.90
3194;DHT22;1608;50.860;13.466;2023-04-01T07:00:32;12.90;99.90
3194;DHT22;1608;50.860;13.466;2023-04-01T07:03:06;12.80;99.90
3194;DHT22;1608;50.860;13.466;2023-04-01T07:05:36;12.80;99.90
3194;DHT22;1608;50.860;13.466;2023-04-01T07:08:08;12.90;99.90
3194;DHT22;1608;50.860;13.466;2023-04-01T07:10:43;13.00;99.90
3194;DHT22;1608;50.860;13.466;2023-04-01T07:13:15;13.00;99.90
3194;DHT22;1608;50.860;13.466;2023-04-01T07:16:07;13.00;99.90
3194;DHT22;1608;50.860;13.466;2023-04-01T07:18:41;13.20;99.90
3194;DHT22;1608;50.860;13.466;2023-04-01T07:21:19;13.20;99.90
3194;DHT22;1608;50.860;13.466;2023-04-01T07:23:49;13.30;99.90
3194;DHT22;1608;50.860;13.466;2023-04-01T07:26:20;13.40;99.90
3194;DHT22;1608;50.860;13.466;2023-04-01T07:28:48;14.90;99.90
3194;DHT22;1608;50.860;13.466;2023-04-01T07:31:20;13.50;99.90
3194;DHT22;1608;50.860;13.466;2023-04-01T07:33:57;13.50;99.90
3194;DHT22;1608;50.860;13.466;2023-04-01T07:36:32;13.60;99.90
3194;DHT22;1608;50.860;13.466;2023-04-01T07:39:08;13.70;99.90
3194;DHT22;1608;50.860;13.466;2023-04-01T07:41:43;13.80;99.90
3194;DHT22;1608;50.860;13.466;2023-04-01T07:44:16;14.00;99.90
3194;DHT22;1608;50.860;13.466;2023-04-01T07:47:08;14.00;99.90
3194;DHT22;1608;50.860;13.466;2023-04-01T07:49:45;14.20;99.90
3194;DHT22;1608;50.860;13.466;2023-04-01T07:52:20;14.20;99.90
3194;DHT22;1608;50.860;13.466;2023-04-01T07:54:57;14.20;99.90
3194;DHT22;1608;50.860;13.466;2023-04-01T07:57:29;14.10;99.90
3194;DHT22;1608;50.860;13.466;2023-04-01T08:00:02;14.10;99.90
3194;DHT22;1608;50.860;13.466;2023-04-01T08:02:43;14.00;99.90
3194;DHT22;1608;50.860;13.466;2023-04-01T08:05:19;13.90;99.90
3194;DHT22;1608;50.860;13.466;2023-04-01T08:07:55;14.10;99.90
3194;DHT22;1608;50.860;13.466;2023-04-01T08:10:29;14.20;99.90
3194;DHT22;1608;50.860;13.466;2023-04-01T08:13:03;14.20;99.90
3194;DHT22;1608;50.860;13.466;2023-04-01T08:15:38;14.20;99.90
3194;DHT22;1608;50.860;13.466;2023-04-01T08:18:18;14.20;99.90
3194;DHT22;1608;50.860;13.466;2023-04-01T08:20:51;14.10;99.90
3194;DHT22;1608;50.860;13.466;2023-04-01T08:23:21;13.90;99.90
3194;DHT22;1608;50.860;13.466;2023-04-01T08:25:53;12.10;99.90
3194;DHT22;1608;50.860;13.466;2023-04-01T08:28:27;13.70;99.90
3194;DHT22;1608;50.860;13.466;2023-04-01T08:31:00;13.60;99.90
3194;DHT22;1608;50.860;13.466;2023-04-01T08:33:28;13.40;99.90
3194;DHT22;1608;50.860;13.466;2023-04-01T08:35:59;13.40;99.90
3194;DHT22;1608;50.860;13.466;2023-04-01T08:38:30;13.50;99.90
3194;DHT22;1608;50.860;13.466;2023-04-01T08:41:01;13.50;99.90
3194;DHT22;1608;50.860;13.466;2023-04-01T08:44:02;13.60;99.90
3194;DHT22;1608;50.860;13.466;2023-04-01T08:46:55;13.80;99.90
3194;DHT22;1608;50.860;13.466;2023-04-01T08:49:34;13.90;99.90
3194;DHT22;1608;50.860;13.466;2023-04-01T08:52:26;13.90;99.90
3194;DHT22;1608;50.860;13.466;2023-04-01T08:55:02;14.10;99.90
3194;DHT22;1608;50.860;13.466;2023-04-01T08:57:40;14.20;99.90
3194;DHT22;1608;50.860;13.466;2023-04-01T09:00:21;14.30;99.90
3194;DHT22;1608;50.860;13.466;2023-04-01T09:03:05;14.50;99.90
3194;DHT22;1608;50.860;13.466;2023-04-01T09:05:47;14.60;99.90
3194;DHT22;1608;50.860;13.466;2023-04-01T09:08:33;14.60;99.90
3194;DHT22;1608;50.860;13.466;2023-04-01T09:11:10;14.60;99.90
3194;DHT22;1608;50.860;13.466;2023-04-01T09:14:07;14.70;99.90
3194;DHT22;1608;50.860;13.466;2023-04-01T09:17:01;14.70;99.90
3194;DHT22;1608;50.860;13.466;2023-04-01T09:19:41;14.80;99.90
3194;DHT22;1608;50.860;13.466;2023-04-01T09:22:24;14.80;99.90
3194;DHT22;1608;50.860;13.466;2023-04-01T09:27:56;14.70;99.90
3194;DHT22;1608;50.860;13.466;2023-04-01T09:30:44;14.80;99.90
3194;DHT22;1608;50.860;13.466;2023-04-01T09:33:53;14.90;99.90
3194;DHT22;1608;50.860;13.466;2023-04-01T09:36:45;15.10;99.90
3194;DHT22;1608;50.860;13.466;2023-04-01T09:39:36;15.40;99.90
3194;DHT22;1608;50.860;13.466;2023-04-01T09:42:15;15.50;99.90
3194;DHT22;1608;50.860;13.466;2023-04-01T09:44:53;15.60;99.90
3194;DHT22;1608;50.860;13.466;2023-04-01T09:47:35;15.60;99.90
3194;DHT22;1608;50.860;13.466;2023-04-01T09:50:27;15.80;99.90
3194;DHT22;1608;50.860;13.466;2023-04-01T09:53:04;15.80;99.90
3194;DHT22;1608;50.860;13.466;2023-04-01T09:59:22;16.10;99.90
3194;DHT22;1608;50.860;13.466;2023-04-01T10:05:29;16.20;99.90
3194;DHT22;1608;50.860;13.466;2023-04-01T10:20:32;16.30;99.90
3194;DHT22;1608;50.860;13.466;2023-04-01T10:23:20;16.30;99.90
3194;DHT22;1608;50.860;13.466;2023-04-01T10:26:03;16.60;99.90
3194;DHT22;1608;50.860;13.466;2023-04-01T10:28:51;17.00;99.90
3194;DHT22;1608;50.860;13.466;2023-04-01T10:34:52;17.60;99.90
3194;DHT22;1608;50.860;13.466;2023-04-01T10:40:44;17.30;99.90
3194;DHT22;1608;50.860;13.466;2023-04-01T10:43:48;17.30;99.90
3194;DHT22;1608;50.860;13.466;2023-04-01T10:49:48;16.90;99.90
3194;DHT22;1608;50.860;13.466;2023-04-01T10:55:46;16.90;99.90
3194;DHT22;1608;50.860;13.466;2023-04-01T10:58:50;17.10;99.90
3194;DHT22;1608;50.860;13.466;2023-04-01T11:04:56;17.30;99.90
3194;DHT22;1608;50.860;13.466;2023-04-01T11:07:49;17.60;99.90
3194;DHT22;1608;50.860;13.466;2023-04-01T11:20:02;17.80;99.90
3194;DHT22;1608;50.860;13.466;2023-04-01T11:22:58;18.00;99.90
3194;DHT22;1608;50.860;13.466;2023-04-01T11:26:12;17.90;99.90
3194;DHT22;1608;50.860;13.466;2023-04-01T11:28:59;17.70;99.90
3194;DHT22;1608;50.860;13.466;2023-04-01T11:31:37;17.60;99.90
3194;DHT22;1608;50.860;13.466;2023-04-01T11:34:16;17.60;99.90
3194;DHT22;1608;50.860;13.466;2023-04-01T11:36:56;17.50;99.90
3194;DHT22;1608;50.860;13.466;2023-04-01T11:39:32;17.40;99.90
3194;DHT22;1608;50.860;13.466;2023-04-01T11:42:09;17.50;99.90
3194;DHT22;1608;50.860;13.466;2023-04-01T11:44:46;17.50;99.90
3194;DHT22;1608;50.860;13.466;2023-04-01T11:47:27;17.50;99.90
3194;DHT22;1608;50.860;13.466;2023-04-01T11:50:10;17.50;99.90
3194;DHT22;1608;50.860;13.466;2023-04-01T11:55:56;17.30;99.90
3194;DHT22;1608;50.860;13.466;2023-04-01T12:01:34;17.20;99.90
3194;DHT22;1608;50.860;13.466;2023-04-01T12:07:18;17.20;99.90
3194;DHT22;1608;50.860;13.466;2023-04-01T12:09:52;17.30;99.70
3194;DHT22;1608;50.860;13.466;2023-04-01T12:12:29;17.30;99.80
3194;DHT22;1608;50.860;13.466;2023-04-01T12:15:10;17.40;99.40
3194;DHT22;1608;50.860;13.466;2023-04-01T12:17:44;17.20;98.00
3194;DHT22;1608;50.860;13.466;2023-04-01T12:20:24;17.10;98.30
3194;DHT22;1608;50.860;13.466;2023-04-01T12:23:02;17.00;98.30
3194;DHT22;1608;50.860;13.466;2023-04-01T12:25:49;17.00;98.60
3194;DHT22;1608;50.860;13.466;2023-04-01T12:28:25;17.10;98.90
3194;DHT22;1608;50.860;13.466;2023-04-01T12:31:06;17.20;98.50
3194;DHT22;1608;50.860;13.466;2023-04-01T12:33:54;17.20;98.30
3194;DHT22;1608;50.860;13.466;2023-04-01T12:36:35;17.40;99.00
3194;DHT22;1608;50.860;13.466;2023-04-01T12:39:21;17.40;97.50
3194;DHT22;1608;50.860;13.466;2023-04-01T12:42:02;17.30;97.30
3194;DHT22;1608;50.860;13.466;2023-04-01T12:44:44;17.10;97.50
3194;DHT22;1608;50.860;13.466;2023-04-01T12:47:41;16.90;98.70
3194;DHT22;1608;50.860;13.466;2023-04-01T12:50:45;16.90;99.40
3194;DHT22;1608;50.860;13.466;2023-04-01T12:53:33;17.00;99.60
3194;DHT22;1608;50.860;13.466;2023-04-01T12:56:03;17.00;99.90
3194;DHT22;1608;50.860;13.466;2023-04-01T12:59:08;17.40;99.90
3194;DHT22;1608;50.860;13.466;2023-04-01T13:01:59;17.70;98.60
3194;DHT22;1608;50.860;13.466;2023-04-01T13:04:53;17.70;98.50
3194;DHT22;1608;50.860;13.466;2023-04-01T13:07:46;17.60;98.10
3194;DHT22;1608;50.860;13.466;2023-04-01T13:10:27;17.20;98.00
3194;DHT22;1608;50.860;13.466;2023-04-01T13:13:18;17.00;99.80
3194;DHT22;1608;50.860;13.466;2023-04-01T13:15:52;16.80;99.50
3194;DHT22;1608;50.860;13.466;2023-04-01T13:18:30;16.70;99.90
3194;DHT22;1608;50.860;13.466;2023-04-01T13:21:06;16.60;99.40
3194;DHT22;1608;50.860;13.466;2023-04-01T13:23:51;16.70;99.90
3194;DHT22;1608;50.860;13.466;2023-04-01T13:26:27;16.80;99.90
3194;DHT22;1608;50.860;13.466;2023-04-01T13:29:00;17.10;99.90
3194;DHT22;1608;50.860;13.466;2023-04-01T13:31:40;17.50;98.60
3194;DHT22;1608;50.860;13.466;2023-04-01T13:34:30;17.50;98.80
3194;DHT22;1608;50.860;13.466;2023-04-01T13:37:18;17.60;97.40
3194;DHT22;1608;50.860;13.466;2023-04-01T13:40:00;17.40;96.80
3194;DHT22;1608;50.860;13.466;2023-04-01T13:42:31;17.30;97.10
3194;DHT22;1608;50.860;13.466;2023-04-01T13:45:02;17.20;97.80
3194;DHT22;1608;50.860;13.466;2023-04-01T13:47:52;17.40;98.00
3194;DHT22;1608;50.860;13.466;2023-04-01T13:50:32;17.50;97.20
3194;DHT22;1608;50.860;13.466;2023-04-01T13:53:25;17.60;96.60
3194;DHT22;1608;50.860;13.466;2023-04-01T13:56:16;17.60;96.70
3194;DHT22;1608;50.860;13.466;2023-04-01T13:59:06;17.70;97.40
3194;DHT22;1608;50.860;13.466;2023-04-01T14:01:41;17.60;97.70
3194;DHT22;1608;50.860;13.466;2023-04-01T14:04:30;17.60;97.70
3194;DHT22;1608;50.860;13.466;2023-04-01T14:07:13;17.50;97.30
3194;DHT22;1608;50.860;13.466;2023-04-01T14:09:50;17.40;97.20
3194;DHT22;1608;50.860;13.466;2023-04-01T14:12:28;17.20;97.50
3194;DHT22;1608;50.860;13.466;2023-04-01T14:15:10;17.10;97.50
3194;DHT22;1608;50.860;13.466;2023-04-01T14:18:06;16.90;97.50
3194;DHT22;1608;50.860;13.466;2023-04-01T14:20:41;16.80;98.80
3194;DHT22;1608;50.860;13.466;2023-04-01T14:23:28;16.80;98.20
3194;DHT22;1608;50.860;13.466;2023-04-01T14:26:07;16.60;98.20
3194;DHT22;1608;50.860;13.466;2023-04-01T14:28:41;16.40;98.70
3194;DHT22;1608;50.860;13.466;2023-04-01T14:31:30;16.20;99.50
3194;DHT22;1608;50.860;13.466;2023-04-01T14:34:12;16.00;99.90
3194;DHT22;1608;50.860;13.466;2023-04-01T14:37:03;15.90;99.90
3194;DHT22;1608;50.860;13.466;2023-04-01T14:39:55;15.80;99.90
3194;DHT22;1608;50.860;13.466;2023-04-01T14:42:45;15.70;99.90
3194;DHT22;1608;50.860;13.466;2023-04-01T14:45:34;15.70;99.90
3194;DHT22;1608;50.860;13.466;2023-04-01T14:48:16;15.70;99.90
3194;DHT22;1608;50.860;13.466;2023-04-01T14:50:46;15.70;99.90
3194;DHT22;1608;50.860;13.466;2023-04-01T14:53:26;15.80;99.90
3194;DHT22;1608;50.860;13.466;2023-04-01T14:55:55;15.90;99.90
3194;DHT22;1608;50.860;13.466;2023-04-01T14:58:24;16.00;99.90
3194;DHT22;1608;50.860;13.466;2023-04-01T15:01:01;16.10;99.90
3194;DHT22;1608;50.860;13.466;2023-04-01T15:03:38;16.30;99.90
3194;DHT22;1608;50.860;13.466;2023-04-01T15:06:33;16.40;99.90
3194;DHT22;1608;50.860;13.466;2023-04-01T15:09:07;16.60;99.90
3194;DHT22;1608;50.860;13.466;2023-04-01T15:11:50;16.70;99.90
3194;DHT22;1608;50.860;13.466;2023-04-01T15:14:38;16.80;99.90
3194;DHT22;1608;50.860;13.466;2023-04-01T15:17:38;16.70;99.90
3194;DHT22;1608;50.860;13.466;2023-04-01T15:20:25;16.70;99.90
3194;DHT22;1608;50.860;13.466;2023-04-01T15:23:05;16.70;99.90
3194;DHT22;1608;50.860;13.466;2023-04-01T15:26:02;16.70;99.90
3194;DHT22;1608;50.860;13.466;2023-04-01T15:28:36;16.80;99.90
3194;DHT22;1608;50.860;13.466;2023-04-01T15:31:09;16.90;99.90
3194;DHT22;1608;50.860;13.466;2023-04-01T15:33:49;17.00;99.90
3194;DHT22;1608;50.860;13.466;2023-04-01T15:36:28;17.00;99.90
3194;DHT22;1608;50.860;13.466;2023-04-01T15:39:05;17.00;99.90
3194;DHT22;1608;50.860;13.466;2023-04-01T15:41:43;16.30;99.90
3194;DHT22;1608;50.860;13.466;2023-04-01T15:44:46;16.80;99.90
3194;DHT22;1608;50.860;13.466;2023-04-01T15:47:33;16.50;99.90
3194;DHT22;1608;50.860;13.466;2023-04-01T15:50:45;16.10;99.90
3194;DHT22;1608;50.860;13.466;2023-04-01T15:56:17;15.60;99.90
3194;DHT22;1608;50.860;13.466;2023-04-01T15:58:56;15.60;99.90
3194;DHT22;1608;50.860;13.466;2023-04-01T16:01:36;15.70;99.90
3194;DHT22;1608;50.860;13.466;2023-04-01T16:04:17;15.80;99.90
3194;DHT22;1608;50.860;13.466;2023-04-01T16:07:01;15.70;99.90
3194;DHT22;1608;50.860;13.466;2023-04-01T16:09:51;15.80;99.90
3194;DHT22;1608;50.860;13.466;2023-04-01T16:12:41;15.90;99.90
3194;DHT22;1608;50.860;13.466;2023-04-01T16:15:21;15.90;99.90
3194;DHT22;1608;50.860;13.466;2023-04-01T16:18:13;15.90;99.90
3194;DHT22;1608;50.860;13.466;2023-04-01T16:20:51;15.80;99.90
3194;DHT22;1608;50.860;13.466;2023-04-01T16:23:26;15.80;99.90
3194;DHT22;1608;50.860;13.466;2023-04-01T16:26:03;15.70;99.90
3194;DHT22;1608;50.860;13.466;2023-04-01T16:28:36;15.60;99.90
3194;DHT22;1608;50.860;13.466;2023-04-01T16:31:10;15.60;99.90
3194;DHT22;1608;50.860;13.466;2023-04-01T16:33:46;15.50;99.90
3194;DHT22;1608;50.860;13.466;2023-04-01T16:36:24;15.50;99.90
3194;DHT22;1608;50.860;13.466;2023-04-01T16:39:02;15.40;99.90
3194;DHT22;1608;50.860;13.466;2023-04-01T16:41:34;15.20;99.90
3194;DHT22;1608;50.860;13.466;2023-04-01T16:44:13;15.30;99.90
3194;DHT22;1608;50.860;13.466;2023-04-01T16:46:46;15.20;99.90
3194;DHT22;1608;50.860;13.466;2023-04-01T16:49:29;15.10;99.90
3194;DHT22;1608;50.860;13.466;2023-04-01T16:52:12;13.30;99.90
3194;DHT22;1608;50.860;13.466;2023-04-01T16:54:44;14.90;99.90
3194;DHT22;1608;50.860;13.466;2023-04-01T16:57:21;14.90;99.90
3194;DHT22;1608;50.860;13.466;2023-04-01T16:59:55;14.90;99.90
3194;DHT22;1608;50.860;13.466;2023-04-01T17:02:30;14.70;99.90
3194;DHT22;1608;50.860;13.466;2023-04-01T17:05:01;14.80;99.90
3194;DHT22;1608;50.860;13.466;2023-04-01T17:07:40;14.70;99.90
3194;DHT22;1608;50.860;13.466;2023-04-01T17:10:22;14.60;99.90
3194;DHT22;1608;50.860;13.466;2023-04-01T17:13:13;14.60;99.90
3194;DHT22;1608;50.860;13.466;2023-04-01T17:15:45;14.60;99.90
3194;DHT22;1608;50.860;13.466;2023-04-01T17:18:21;14.60;99.90
3194;DHT22;1608;50.860;13.466;2023-04-01T17:20:55;14.50;99.90
3194;DHT22;1608;50.860;13.466;2023-04-01T17:23:30;14.50;99.90
3194;DHT22;1608;50.860;13.466;2023-04-01T17:26:10;14.50;99.90
3194;DHT22;1608;50.860;13.466;2023-04-01T17:28:46;14.50;99.90
3194;DHT22;1608;50.860;13.466;2023-04-01T17:31:25;14.50;99.90
3194;DHT22;1608;50.860;13.466;2023-04-01T17:37:00;14.40;99.90
3194;DHT22;1608;50.860;13.466;2023-04-01T17:39:46;14.30;99.90
3194;DHT22;1608;50.860;13.466;2023-04-01T17:42:21;14.30;99.90
3194;DHT22;1608;50.860;13.466;2023-04-01T17:44:54;14.20;99.90
3194;DHT22;1608;50.860;13.466;2023-04-01T17:47:47;14.10;99.90
3194;DHT22;1608;50.860;13.466;2023-04-01T17:50:27;14.10;99.90
3194;DHT22;1608;50.860;13.466;2023-04-01T17:53:06;14.10;99.90
3194;DHT22;1608;50.860;13.466;2023-04-01T17:55:55;14.10;99.90
3194;DHT22;1608;50.860;13.466;2023-04-01T17:58:29;14.10;99.90